sensor_id;sensor_type;location;lat;lon;timestamp;temperature;humidity
8226;DHT22;4154;48.810;9.012;2022-09-09T00:02:15;16.00;97.80
8226;DHT22;4154;48.810;9.012;2022-09-09T00:10:29;16.00;97.90
8226;DHT22;4154;48.810;9.012;2022-09-09T00:19:04;16.00;97.90
8226;DHT22;4154;48.810;9.012;2022-09-09T00:21:40;16.00;97.90
8226;DHT22;4154;48.810;9.012;2022-09-09T00:27:11;15.90;97.80
8226;DHT22;4154;48.810;9.012;2022-09-09T00:32:39;15.90;98.00
8226;DHT22;4154;48.810;9.012;2022-09-09T00:38:00;15.80;98.10
8226;DHT22;4154;48.810;9.012;2022-09-09T00:40:39;15.80;97.90
8226;DHT22;4154;48.810;9.012;2022-09-09T00:43:36;15.80;99.90
8226;DHT22;4154;48.810;9.012;2022-09-09T00:49:19;15.90;97.80
8226;DHT22;4154;48.810;9.012;2022-09-09T00:52:23;15.90;97.90
8226;DHT22;4154;48.810;9.012;2022-09-09T00:55:16;16.00;97.80
8226;DHT22;4154;48.810;9.012;2022-09-09T00:57:51;16.00;98.00
8226;DHT22;4154;48.810;9.012;2022-09-09T01:00:30;16.00;97.60
8226;DHT22;4154;48.810;9.012;2022-09-09T01:03:21;16.00;97.50
8226;DHT22;4154;48.810;9.012;2022-09-09T01:06:11;16.10;97.60
8226;DHT22;4154;48.810;9.012;2022-09-09T01:12:41;16.10;97.60
8226;DHT22;4154;48.810;9.012;2022-09-09T01:15:10;16.10;97.70
8226;DHT22;4154;48.810;9.012;2022-09-09T01:26:13;16.10;97.80
8226;DHT22;4154;48.810;9.012;2022-09-09T01:28:47;16.10;97.50
8226;DHT22;4154;48.810;9.012;2022-09-09T01:31:32;16.10;97.50
8226;DHT22;4154;48.810;9.012;2022-09-09T01:34:10;16.10;97.60
8226;DHT22;4154;48.810;9.012;2022-09-09T01:39:32;16.20;97.40
8226;DHT22;4154;48.810;9.012;2022-09-09T01:42:01;16.20;97.40
8226;DHT22;4154;48.810;9.012;2022-09-09T01:44:30;16.20;97.40
8226;DHT22;4154;48.810;9.012;2022-09-09T01:46:56;16.20;97.50
8226;DHT22;4154;48.810;9.012;2022-09-09T01:49:23;16.20;97.60
8226;DHT22;4154;48.810;9.012;2022-09-09T01:51:53;16.20;97.50
8226;DHT22;4154;48.810;9.012;2022-09-09T01:54:22;16.20;97.40
8226;DHT22;4154;48.810;9.012;2022-09-09T02:00:08;16.20;97.40
8226;DHT22;4154;48.810;9.012;2022-09-09T02:02:56;16.10;97.40
8226;DHT22;4154;48.810;9.012;2022-09-09T02:05:43;16.10;97.50
8226;DHT22;4154;48.810;9.012;2022-09-09T02:08:23;16.10;97.50
8226;DHT22;4154;48.810;9.012;2022-09-09T02:11:13;16.00;97.30
8226;DHT22;4154;48.810;9.012;2022-09-09T02:13:45;16.10;97.40
8226;DHT22;4154;48.810;9.012;2022-09-09T02:16:21;16.10;97.40
8226;DHT22;4154;48.810;9.012;2022-09-09T02:21:52;16.00;97.30
8226;DHT22;4154;48.810;9.012;2022-09-09T02:24:20;16.00;97.40
8226;DHT22;4154;48.810;9.012;2022-09-09T02:26:52;16.00;97.40
8226;DHT22;4154;48.810;9.012;2022-09-09T02:29:23;15.90;97.30
8226;DHT22;4154;48.810;9.012;2022-09-09T02:31:56;15.90;97.40
8226;DHT22;4154;48.810;9.012;2022-09-09T02:34:27;15.90;97.40
8226;DHT22;4154;48.810;9.012;2022-09-09T02:36:57;15.90;97.50
8226;DHT22;4154;48.810;9.012;2022-09-09T02:39:26;15.80;97.50
8226;DHT22;4154;48.810;9.012;2022-09-09T02:41:52;15.80;97.60
8226;DHT22;4154;48.810;9.012;2022-09-09T02:44:18;15.80;97.70
8226;DHT22;4154;48.810;9.012;2022-09-09T02:46:58;15.80;97.70
8226;DHT22;4154;48.810;9.012;2022-09-09T02:53:06;15.80;97.80
8226;DHT22;4154;48.810;9.012;2022-09-09T02:55:51;15.80;97.90
8226;DHT22;4154;48.810;9.012;2022-09-09T02:58:27;15.70;97.90
8226;DHT22;4154;48.810;9.012;2022-09-09T03:00:53;15.70;97.90
8226;DHT22;4154;48.810;9.012;2022-09-09T03:03:22;15.60;97.90
8226;DHT22;4154;48.810;9.012;2022-09-09T03:05:49;15.60;98.00
8226;DHT22;4154;48.810;9.012;2022-09-09T03:08:15;15.60;98.00
8226;DHT22;4154;48.810;9.012;2022-09-09T03:10:42;15.60;98.10
8226;DHT22;4154;48.810;9.012;2022-09-09T03:13:08;15.40;99.90
8226;DHT22;4154;48.810;9.012;2022-09-09T03:15:34;15.50;98.30
8226;DHT22;4154;48.810;9.012;2022-09-09T03:18:01;15.50;98.00
8226;DHT22;4154;48.810;9.012;2022-09-09T03:20:28;15.50;98.00
8226;DHT22;4154;48.810;9.012;2022-09-09T03:22:56;15.50;98.00
8226;DHT22;4154;48.810;9.012;2022-09-09T03:25:23;15.50;98.00
8226;DHT22;4154;48.810;9.012;2022-09-09T03:27:53;15.50;98.00
8226;DHT22;4154;48.810;9.012;2022-09-09T03:30:25;15.40;98.00
8226;DHT22;4154;48.810;9.012;2022-09-09T03:32:52;15.40;98.10
8226;DHT22;4154;48.810;9.012;2022-09-09T03:35:18;15.30;98.10
8226;DHT22;4154;48.810;9.012;2022-09-09T03:37:45;15.30;98.10
8226;DHT22;4154;48.810;9.012;2022-09-09T03:42:38;15.20;98.10
8226;DHT22;4154;48.810;9.012;2022-09-09T03:45:06;15.10;98.40
8226;DHT22;4154;48.810;9.012;2022-09-09T03:47:34;15.10;98.50
8226;DHT22;4154;48.810;9.012;2022-09-09T03:52:26;15.10;98.40
8226;DHT22;4154;48.810;9.012;2022-09-09T03:54:53;15.10;98.50
8226;DHT22;4154;48.810;9.012;2022-09-09T03:57:20;15.10;98.70
8226;DHT22;4154;48.810;9.012;2022-09-09T03:59:46;15.10;98.80
8226;DHT22;4154;48.810;9.012;2022-09-09T04:04:38;15.10;98.60
8226;DHT22;4154;48.810;9.012;2022-09-09T04:07:05;15.10;98.90
8226;DHT22;4154;48.810;9.012;2022-09-09T04:09:32;15.10;98.90
8226;DHT22;4154;48.810;9.012;2022-09-09T04:12:00;15.10;99.90
8226;DHT22;4154;48.810;9.012;2022-09-09T04:16:54;15.10;98.70
8226;DHT22;4154;48.810;9.012;2022-09-09T04:19:22;15.20;98.90
8226;DHT22;4154;48.810;9.012;2022-09-09T04:24:15;15.20;98.70
8226;DHT22;4154;48.810;9.012;2022-09-09T04:26:41;15.20;98.70
8226;DHT22;4154;48.810;9.012;2022-09-09T04:29:08;15.20;98.80
8226;DHT22;4154;48.810;9.012;2022-09-09T04:31:34;15.30;98.80
8226;DHT22;4154;48.810;9.012;2022-09-09T04:34:00;15.30;98.80
8226;DHT22;4154;48.810;9.012;2022-09-09T04:36:31;15.30;98.80
8226;DHT22;4154;48.810;9.012;2022-09-09T04:38:58;15.40;98.80
8226;DHT22;4154;48.810;9.012;2022-09-09T04:43:50;15.40;98.40
8226;DHT22;4154;48.810;9.012;2022-09-09T04:46:19;15.40;98.50
8226;DHT22;4154;48.810;9.012;2022-09-09T04:48:46;15.40;98.50
8226;DHT22;4154;48.810;9.012;2022-09-09T04:51:13;15.40;98.50
8226;DHT22;4154;48.810;9.012;2022-09-09T04:53:39;15.40;98.30
8226;DHT22;4154;48.810;9.012;2022-09-09T04:56:08;15.40;98.30
8226;DHT22;4154;48.810;9.012;2022-09-09T04:58:36;15.50;98.50
8226;DHT22;4154;48.810;9.012;2022-09-09T05:01:08;15.40;98.40
8226;DHT22;4154;48.810;9.012;2022-09-09T05:03:38;15.50;98.40
8226;DHT22;4154;48.810;9.012;2022-09-09T05:06:15;15.50;98.50
8226;DHT22;4154;48.810;9.012;2022-09-09T05:08:43;15.50;98.40
8226;DHT22;4154;48.810;9.012;2022-09-09T05:11:30;15.50;98.50
8226;DHT22;4154;48.810;9.012;2022-09-09T05:13:57;15.50;98.50
8226;DHT22;4154;48.810;9.012;2022-09-09T05:16:26;15.50;98.40
8226;DHT22;4154;48.810;9.012;2022-09-09T05:18:52;15.50;98.20
8226;DHT22;4154;48.810;9.012;2022-09-09T05:21:20;15.50;98.30
8226;DHT22;4154;48.810;9.012;2022-09-09T05:23:48;15.60;98.50
8226;DHT22;4154;48.810;9.012;2022-09-09T05:26:18;15.50;98.70
8226;DHT22;4154;48.810;9.012;2022-09-09T05:28:46;15.60;98.40
8226;DHT22;4154;48.810;9.012;2022-09-09T05:31:14;15.60;98.30
8226;DHT22;4154;48.810;9.012;2022-09-09T05:33:43;15.60;98.40
8226;DHT22;4154;48.810;9.012;2022-09-09T05:36:14;15.60;98.30
8226;DHT22;4154;48.810;9.012;2022-09-09T05:38:42;15.60;98.20
8226;DHT22;4154;48.810;9.012;2022-09-09T05:41:10;15.60;98.20
8226;DHT22;4154;48.810;9.012;2022-09-09T05:43:36;15.60;98.20
8226;DHT22;4154;48.810;9.012;2022-09-09T05:46:08;15.60;98.40
8226;DHT22;4154;48.810;9.012;2022-09-09T05:48:43;15.60;98.50
8226;DHT22;4154;48.810;9.012;2022-09-09T05:51:13;15.60;98.70
8226;DHT22;4154;48.810;9.012;2022-09-09T05:53:45;15.60;98.70
8226;DHT22;4154;48.810;9.012;2022-09-09T05:56:20;15.60;98.80
8226;DHT22;4154;48.810;9.012;2022-09-09T05:58:54;15.70;98.80
8226;DHT22;4154;48.810;9.012;2022-09-09T06:01:33;15.70;98.90
8226;DHT22;4154;48.810;9.012;2022-09-09T06:04:01;15.70;99.00
8226;DHT22;4154;48.810;9.012;2022-09-09T06:06:32;15.70;99.10
8226;DHT22;4154;48.810;9.012;2022-09-09T06:09:03;15.80;99.20
8226;DHT22;4154;48.810;9.012;2022-09-09T06:11:36;15.80;99.20
8226;DHT22;4154;48.810;9.012;2022-09-09T06:14:04;15.80;98.70
8226;DHT22;4154;48.810;9.012;2022-09-09T06:16:32;15.90;98.70
8226;DHT22;4154;48.810;9.012;2022-09-09T06:18:58;15.90;98.80
8226;DHT22;4154;48.810;9.012;2022-09-09T06:21:26;15.90;99.00
8226;DHT22;4154;48.810;9.012;2022-09-09T06:23:53;15.90;98.90
8226;DHT22;4154;48.810;9.012;2022-09-09T06:26:23;16.00;98.70
8226;DHT22;4154;48.810;9.012;2022-09-09T06:28:53;16.00;98.90
8226;DHT22;4154;48.810;9.012;2022-09-09T06:31:22;16.00;98.90
8226;DHT22;4154;48.810;9.012;2022-09-09T06:33:50;16.00;98.80
8226;DHT22;4154;48.810;9.012;2022-09-09T06:36:24;16.00;98.90
8226;DHT22;4154;48.810;9.012;2022-09-09T06:38:51;16.00;98.70
8226;DHT22;4154;48.810;9.012;2022-09-09T06:41:19;16.10;98.80
8226;DHT22;4154;48.810;9.012;2022-09-09T06:43:47;16.10;98.70
8226;DHT22;4154;48.810;9.012;2022-09-09T06:48:44;16.10;98.90
8226;DHT22;4154;48.810;9.012;2022-09-09T06:51:19;16.10;98.90
8226;DHT22;4154;48.810;9.012;2022-09-09T06:53:47;16.20;98.90
8226;DHT22;4154;48.810;9.012;2022-09-09T06:56:22;16.20;98.80
8226;DHT22;4154;48.810;9.012;2022-09-09T06:58:50;16.30;98.80
8226;DHT22;4154;48.810;9.012;2022-09-09T07:01:28;16.30;99.00
8226;DHT22;4154;48.810;9.012;2022-09-09T07:03:56;16.30;99.00
8226;DHT22;4154;48.810;9.012;2022-09-09T07:06:32;16.40;99.00
8226;DHT22;4154;48.810;9.012;2022-09-09T07:09:07;16.40;99.00
8226;DHT22;4154;48.810;9.012;2022-09-09T07:11:46;16.40;99.10
8226;DHT22;4154;48.810;9.012;2022-09-09T07:14:15;16.50;99.10
8226;DHT22;4154;48.810;9.012;2022-09-09T07:16:42;16.50;99.00
8226;DHT22;4154;48.810;9.012;2022-09-09T07:19:09;16.50;99.00
8226;DHT22;4154;48.810;9.012;2022-09-09T07:21:35;16.60;99.00
8226;DHT22;4154;48.810;9.012;2022-09-09T07:24:02;16.60;98.90
8226;DHT22;4154;48.810;9.012;2022-09-09T07:26:30;16.70;98.90
8226;DHT22;4154;48.810;9.012;2022-09-09T07:28:56;16.80;99.00
8226;DHT22;4154;48.810;9.012;2022-09-09T07:31:30;16.80;99.00
8226;DHT22;4154;48.810;9.012;2022-09-09T07:33:58;16.90;98.70
8226;DHT22;4154;48.810;9.012;2022-09-09T07:36:33;16.90;98.70
8226;DHT22;4154;48.810;9.012;2022-09-09T07:39:03;16.90;98.70
8226;DHT22;4154;48.810;9.012;2022-09-09T07:41:34;17.00;98.80
8226;DHT22;4154;48.810;9.012;2022-09-09T07:44:12;17.00;98.90
8226;DHT22;4154;48.810;9.012;2022-09-09T07:46:44;17.00;98.90
8226;DHT22;4154;48.810;9.012;2022-09-09T07:49:11;17.00;99.00
8226;DHT22;4154;48.810;9.012;2022-09-09T07:51:39;17.10;99.10
8226;DHT22;4154;48.810;9.012;2022-09-09T07:54:09;17.20;99.10
8226;DHT22;4154;48.810;9.012;2022-09-09T07:56:38;17.20;98.80
8226;DHT22;4154;48.810;9.012;2022-09-09T07:59:05;17.30;98.60
8226;DHT22;4154;48.810;9.012;2022-09-09T08:01:33;17.40;98.60
8226;DHT22;4154;48.810;9.012;2022-09-09T08:04:13;17.40;98.60
8226;DHT22;4154;48.810;9.012;2022-09-09T08:06:45;17.40;98.60
8226;DHT22;4154;48.810;9.012;2022-09-09T08:09:14;17.50;98.50
8226;DHT22;4154;48.810;9.012;2022-09-09T08:11:41;17.50;98.40
8226;DHT22;4154;48.810;9.012;2022-09-09T08:14:10;17.60;98.20
8226;DHT22;4154;48.810;9.012;2022-09-09T08:16:45;17.60;98.00
8226;DHT22;4154;48.810;9.012;2022-09-09T08:19:13;17.70;97.80
8226;DHT22;4154;48.810;9.012;2022-09-09T08:21:40;17.80;97.80
8226;DHT22;4154;48.810;9.012;2022-09-09T08:24:08;17.80;97.70
8226;DHT22;4154;48.810;9.012;2022-09-09T08:26:44;17.90;97.70
8226;DHT22;4154;48.810;9.012;2022-09-09T08:29:12;18.00;97.70
8226;DHT22;4154;48.810;9.012;2022-09-09T08:31:50;18.10;97.30
8226;DHT22;4154;48.810;9.012;2022-09-09T08:34:21;18.10;97.10
8226;DHT22;4154;48.810;9.012;2022-09-09T08:36:48;18.30;99.90
8226;DHT22;4154;48.810;9.012;2022-09-09T08:39:17;18.20;96.70
8226;DHT22;4154;48.810;9.012;2022-09-09T08:47:15;18.50;96.30
8226;DHT22;4154;48.810;9.012;2022-09-09T08:50:33;18.60;96.20
8226;DHT22;4154;48.810;9.012;2022-09-09T08:55:56;18.70;95.20
8226;DHT22;4154;48.810;9.012;2022-09-09T08:58:30;18.80;95.00
8226;DHT22;4154;48.810;9.012;2022-09-09T09:10:16;19.00;95.10
8226;DHT22;4154;48.810;9.012;2022-09-09T09:13:01;19.00;94.60
8226;DHT22;4154;48.810;9.012;2022-09-09T09:15:36;19.00;94.50
8226;DHT22;4154;48.810;9.012;2022-09-09T09:18:04;19.00;94.80
8226;DHT22;4154;48.810;9.012;2022-09-09T09:21:03;19.10;94.90
8226;DHT22;4154;48.810;9.012;2022-09-09T09:23:49;19.00;94.90
8226;DHT22;4154;48.810;9.012;2022-09-09T09:26:23;19.10;95.20
8226;DHT22;4154;48.810;9.012;2022-09-09T09:28:56;19.20;95.40
8226;DHT22;4154;48.810;9.012;2022-09-09T09:31:24;19.20;95.20
8226;DHT22;4154;48.810;9.012;2022-09-09T09:33:56;19.30;95.50
8226;DHT22;4154;48.810;9.012;2022-09-09T09:36:38;19.40;95.60
8226;DHT22;4154;48.810;9.012;2022-09-09T09:41:42;19.50;95.10
8226;DHT22;4154;48.810;9.012;2022-09-09T09:44:29;19.60;95.20
8226;DHT22;4154;48.810;9.012;2022-09-09T09:47:10;19.40;95.30
8226;DHT22;4154;48.810;9.012;2022-09-09T09:49:39;19.60;93.90
8226;DHT22;4154;48.810;9.012;2022-09-09T09:52:17;19.70;93.60
8226;DHT22;4154;48.810;9.012;2022-09-09T09:57:16;19.70;93.40
8226;DHT22;4154;48.810;9.012;2022-09-09T09:59:44;19.80;93.10
8226;DHT22;4154;48.810;9.012;2022-09-09T10:04:42;19.90;93.30
8226;DHT22;4154;48.810;9.012;2022-09-09T10:07:18;19.90;93.50
8226;DHT22;4154;48.810;9.012;2022-09-09T10:09:52;19.90;93.30
8226;DHT22;4154;48.810;9.012;2022-09-09T10:18:22;20.10;92.90
8226;DHT22;4154;48.810;9.012;2022-09-09T10:21:26;20.20;92.30
8226;DHT22;4154;48.810;9.012;2022-09-09T10:29:50;20.30;92.80
8226;DHT22;4154;48.810;9.012;2022-09-09T10:35:21;20.30;92.30
8226;DHT22;4154;48.810;9.012;2022-09-09T10:46:56;20.10;94.80
8226;DHT22;4154;48.810;9.012;2022-09-09T10:50:00;20.00;96.70
8226;DHT22;4154;48.810;9.012;2022-09-09T10:53:08;19.80;97.40
8226;DHT22;4154;48.810;9.012;2022-09-09T10:55:53;19.60;98.00
8226;DHT22;4154;48.810;9.012;2022-09-09T10:58:58;19.40;98.60
8226;DHT22;4154;48.810;9.012;2022-09-09T11:07:15;18.80;98.60
8226;DHT22;4154;48.810;9.012;2022-09-09T11:10:00;18.60;97.50
8226;DHT22;4154;48.810;9.012;2022-09-09T11:12:34;18.40;96.70
8226;DHT22;4154;48.810;9.012;2022-09-09T11:15:13;18.10;97.20
8226;DHT22;4154;48.810;9.012;2022-09-09T11:17:55;17.90;97.80
8226;DHT22;4154;48.810;9.012;2022-09-09T11:20:25;17.80;98.60
8226;DHT22;4154;48.810;9.012;2022-09-09T11:23:05;17.70;98.40
8226;DHT22;4154;48.810;9.012;2022-09-09T11:25:46;17.70;98.60
8226;DHT22;4154;48.810;9.012;2022-09-09T11:31:33;17.60;98.30
8226;DHT22;4154;48.810;9.012;2022-09-09T11:40:28;17.40;98.80
8226;DHT22;4154;48.810;9.012;2022-09-09T11:43:15;17.30;99.10
8226;DHT22;4154;48.810;9.012;2022-09-09T11:46:01;17.30;99.30
8226;DHT22;4154;48.810;9.012;2022-09-09T11:48:39;17.30;99.30
8226;DHT22;4154;48.810;9.012;2022-09-09T11:53:55;17.30;99.30
8226;DHT22;4154;48.810;9.012;2022-09-09T11:56:45;17.30;99.60
8226;DHT22;4154;48.810;9.012;2022-09-09T11:59:25;17.30;99.90
8226;DHT22;4154;48.810;9.012;2022-09-09T12:01:59;17.40;99.90
8226;DHT22;4154;48.810;9.012;2022-09-09T12:04:54;17.50;99.90
8226;DHT22;4154;48.810;9.012;2022-09-09T12:07:35;17.60;99.90
8226;DHT22;4154;48.810;9.012;2022-09-09T12:12:36;18.00;99.90
8226;DHT22;4154;48.810;9.012;2022-09-09T12:15:25;18.10;99.90
8226;DHT22;4154;48.810;9.012;2022-09-09T12:17:57;18.30;99.90
8226;DHT22;4154;48.810;9.012;2022-09-09T12:23:45;18.60;99.90
8226;DHT22;4154;48.810;9.012;2022-09-09T12:26:36;18.70;99.90
8226;DHT22;4154;48.810;9.012;2022-09-09T12:29:18;18.80;99.90
8226;DHT22;4154;48.810;9.012;2022-09-09T12:32:07;18.90;99.50
8226;DHT22;4154;48.810;9.012;2022-09-09T12:34:48;19.00;99.30
8226;DHT22;4154;48.810;9.012;2022-09-09T12:40:14;19.10;98.50
8226;DHT22;4154;48.810;9.012;2022-09-09T12:48:04;19.30;98.50
8226;DHT22;4154;48.810;9.012;2022-09-09T12:50:36;19.30;97.80
8226;DHT22;4154;48.810;9.012;2022-09-09T12:53:12;19.50;99.90
8226;DHT22;4154;48.810;9.012;2022-09-09T12:55:51;19.40;97.40
8226;DHT22;4154;48.810;9.012;2022-09-09T12:58:20;19.50;97.00
8226;DHT22;4154;48.810;9.012;2022-09-09T13:00:53;19.50;97.00
8226;DHT22;4154;48.810;9.012;2022-09-09T13:03:23;19.50;97.20
8226;DHT22;4154;48.810;9.012;2022-09-09T13:05:51;19.50;96.90
8226;DHT22;4154;48.810;9.012;2022-09-09T13:08:18;19.60;96.20
8226;DHT22;4154;48.810;9.012;2022-09-09T13:10:53;19.80;95.10
8226;DHT22;4154;48.810;9.012;2022-09-09T13:13:28;19.80;95.30
8226;DHT22;4154;48.810;9.012;2022-09-09T13:16:00;19.90;95.30
8226;DHT22;4154;48.810;9.012;2022-09-09T13:18:45;20.00;94.80
8226;DHT22;4154;48.810;9.012;2022-09-09T13:21:11;20.10;94.90
8226;DHT22;4154;48.810;9.012;2022-09-09T13:23:38;20.20;94.60
8226;DHT22;4154;48.810;9.012;2022-09-09T13:28:49;20.30;93.20
8226;DHT22;4154;48.810;9.012;2022-09-09T13:31:23;20.40;93.70
8226;DHT22;4154;48.810;9.012;2022-09-09T13:33:54;20.50;93.90
8226;DHT22;4154;48.810;9.012;2022-09-09T13:36:32;20.50;92.40
8226;DHT22;4154;48.810;9.012;2022-09-09T13:39:01;20.50;92.60
8226;DHT22;4154;48.810;9.012;2022-09-09T13:41:35;20.70;91.10
8226;DHT22;4154;48.810;9.012;2022-09-09T13:44:25;20.70;91.30
8226;DHT22;4154;48.810;9.012;2022-09-09T13:47:04;20.70;91.80
8226;DHT22;4154;48.810;9.012;2022-09-09T13:52:12;20.60;90.70
8226;DHT22;4154;48.810;9.012;2022-09-09T13:54:41;20.60;91.60
8226;DHT22;4154;48.810;9.012;2022-09-09T13:57:33;20.60;91.80
8226;DHT22;4154;48.810;9.012;2022-09-09T13:59:59;20.70;91.20
8226;DHT22;4154;48.810;9.012;2022-09-09T14:02:26;20.70;90.80
8226;DHT22;4154;48.810;9.012;2022-09-09T14:04:51;20.70;90.80
8226;DHT22;4154;48.810;9.012;2022-09-09T14:09:47;21.00;90.10
8226;DHT22;4154;48.810;9.012;2022-09-09T14:17:10;21.20;89.60
8226;DHT22;4154;48.810;9.012;2022-09-09T14:19:36;21.20;88.50
8226;DHT22;4154;48.810;9.012;2022-09-09T14:26:55;21.20;85.60
8226;DHT22;4154;48.810;9.012;2022-09-09T14:29:21;21.20;86.90
8226;DHT22;4154;48.810;9.012;2022-09-09T14:31:47;21.20;86.20
8226;DHT22;4154;48.810;9.012;2022-09-09T14:36:39;21.10;87.50
8226;DHT22;4154;48.810;9.012;2022-09-09T14:39:07;21.10;88.00
8226;DHT22;4154;48.810;9.012;2022-09-09T14:41:33;21.30;87.70
8226;DHT22;4154;48.810;9.012;2022-09-09T14:43:59;21.40;87.70
8226;DHT22;4154;48.810;9.012;2022-09-09T14:46:25;21.40;87.50
8226;DHT22;4154;48.810;9.012;2022-09-09T14:48:52;21.50;86.40
8226;DHT22;4154;48.810;9.012;2022-09-09T14:51:20;21.50;85.60
8226;DHT22;4154;48.810;9.012;2022-09-09T14:53:50;21.50;85.30
8226;DHT22;4154;48.810;9.012;2022-09-09T14:56:19;21.40;83.30
8226;DHT22;4154;48.810;9.012;2022-09-09T14:58:47;21.30;83.80
8226;DHT22;4154;48.810;9.012;2022-09-09T15:01:18;21.10;81.70
8226;DHT22;4154;48.810;9.012;2022-09-09T15:03:53;21.10;82.20
8226;DHT22;4154;48.810;9.012;2022-09-09T15:06:25;21.00;82.70
8226;DHT22;4154;48.810;9.012;2022-09-09T15:08:53;20.80;83.10
8226;DHT22;4154;48.810;9.012;2022-09-09T15:11:20;20.80;83.60
8226;DHT22;4154;48.810;9.012;2022-09-09T15:13:51;20.80;84.00
8226;DHT22;4154;48.810;9.012;2022-09-09T15:16:19;20.70;84.00
8226;DHT22;4154;48.810;9.012;2022-09-09T15:21:17;20.60;85.00
8226;DHT22;4154;48.810;9.012;2022-09-09T15:26:11;20.60;85.20
8226;DHT22;4154;48.810;9.012;2022-09-09T15:28:39;20.60;85.80
8226;DHT22;4154;48.810;9.012;2022-09-09T15:31:14;20.60;86.20
8226;DHT22;4154;48.810;9.012;2022-09-09T15:33:55;20.60;86.80
8226;DHT22;4154;48.810;9.012;2022-09-09T15:39:01;20.50;85.50
8226;DHT22;4154;48.810;9.012;2022-09-09T15:41:29;20.50;86.00
8226;DHT22;4154;48.810;9.012;2022-09-09T15:49:07;20.40;85.50
8226;DHT22;4154;48.810;9.012;2022-09-09T15:51:41;20.40;84.80
8226;DHT22;4154;48.810;9.012;2022-09-09T15:54:11;20.30;85.20
8226;DHT22;4154;48.810;9.012;2022-09-09T15:59:05;20.30;84.70
8226;DHT22;4154;48.810;9.012;2022-09-09T16:01:31;20.20;85.70
8226;DHT22;4154;48.810;9.012;2022-09-09T16:03:58;20.20;86.00
8226;DHT22;4154;48.810;9.012;2022-09-09T16:06:26;20.10;85.10
8226;DHT22;4154;48.810;9.012;2022-09-09T16:08:54;20.10;85.50
8226;DHT22;4154;48.810;9.012;2022-09-09T16:11:41;20.10;86.20
8226;DHT22;4154;48.810;9.012;2022-09-09T16:19:03;20.10;86.40
8226;DHT22;4154;48.810;9.012;2022-09-09T16:21:37;19.90;85.80
8226;DHT22;4154;48.810;9.012;2022-09-09T16:24:06;19.90;86.20
8226;DHT22;4154;48.810;9.012;2022-09-09T16:26:35;19.80;85.90
8226;DHT22;4154;48.810;9.012;2022-09-09T16:29:04;19.50;85.70
8226;DHT22;4154;48.810;9.012;2022-09-09T16:31:30;19.40;85.80
8226;DHT22;4154;48.810;9.012;2022-09-09T16:34:00;19.30;86.00
8226;DHT22;4154;48.810;9.012;2022-09-09T16:36:27;19.20;86.40
8226;DHT22;4154;48.810;9.012;2022-09-09T16:39:01;19.00;85.90
8226;DHT22;4154;48.810;9.012;2022-09-09T16:41:30;19.00;86.30
8226;DHT22;4154;48.810;9.012;2022-09-09T16:44:03;19.00;87.00
8226;DHT22;4154;48.810;9.012;2022-09-09T16:46:33;18.90;88.30
8226;DHT22;4154;48.810;9.012;2022-09-09T16:49:03;18.90;90.00
8226;DHT22;4154;48.810;9.012;2022-09-09T16:51:33;18.80;91.30
8226;DHT22;4154;48.810;9.012;2022-09-09T16:54:03;18.80;92.10
8226;DHT22;4154;48.810;9.012;2022-09-09T16:56:33;18.70;92.30
8226;DHT22;4154;48.810;9.012;2022-09-09T16:59:08;18.60;92.50
8226;DHT22;4154;48.810;9.012;2022-09-09T17:01:38;18.50;93.40
8226;DHT22;4154;48.810;9.012;2022-09-09T17:04:12;18.40;93.70
8226;DHT22;4154;48.810;9.012;2022-09-09T17:06:51;18.30;94.40
8226;DHT22;4154;48.810;9.012;2022-09-09T17:09:19;18.20;94.60
8226;DHT22;4154;48.810;9.012;2022-09-09T17:11:46;18.10;94.60
8226;DHT22;4154;48.810;9.012;2022-09-09T17:14:17;18.10;95.10
8226;DHT22;4154;48.810;9.012;2022-09-09T17:16:44;18.00;95.30
8226;DHT22;4154;48.810;9.012;2022-09-09T17:19:11;17.90;95.30
8226;DHT22;4154;48.810;9.012;2022-09-09T17:21:37;17.90;95.20
8226;DHT22;4154;48.810;9.012;2022-09-09T17:24:03;17.80;95.20
8226;DHT22;4154;48.810;9.012;2022-09-09T17:26:31;17.70;95.40
8226;DHT22;4154;48.810;9.012;2022-09-09T17:28:59;17.70;95.70
8226;DHT22;4154;48.810;9.012;2022-09-09T17:31:27;17.60;95.80
8226;DHT22;4154;48.810;9.012;2022-09-09T17:33:55;17.50;95.80
8226;DHT22;4154;48.810;9.012;2022-09-09T17:36:23;17.50;96.10
8226;DHT22;4154;48.810;9.012;2022-09-09T17:38:54;17.50;96.30
8226;DHT22;4154;48.810;9.012;2022-09-09T17:41:23;17.50;96.60
8226;DHT22;4154;48.810;9.012;2022-09-09T17:43:51;17.40;96.80
8226;DHT22;4154;48.810;9.012;2022-09-09T17:46:28;17.40;96.90
8226;DHT22;4154;48.810;9.012;2022-09-09T17:48:58;17.30;96.90
8226;DHT22;4154;48.810;9.012;2022-09-09T17:51:27;17.30;97.10
8226;DHT22;4154;48.810;9.012;2022-09-09T17:54:04;17.30;97.20
8226;DHT22;4154;48.810;9.012;2022-09-09T17:56:33;17.30;97.20
8226;DHT22;4154;48.810;9.012;2022-09-09T17:59:03;17.20;97.30
8226;DHT22;4154;48.810;9.012;2022-09-09T18:01:34;17.20;97.30
8226;DHT22;4154;48.810;9.012;2022-09-09T18:04:05;17.20;97.40
8226;DHT22;4154;48.810;9.012;2022-09-09T18:09:25;17.10;97.60
8226;DHT22;4154;48.810;9.012;2022-09-09T18:11:54;17.10;97.60
8226;DHT22;4154;48.810;9.012;2022-09-09T18:14:31;17.10;97.60
8226;DHT22;4154;48.810;9.012;2022-09-09T18:16:59;17.10;97.80
8226;DHT22;4154;48.810;9.012;2022-09-09T18:19:27;17.10;97.70
8226;DHT22;4154;48.810;9.012;2022-09-09T18:21:55;17.10;97.60
8226;DHT22;4154;48.810;9.012;2022-09-09T18:24:22;17.10;97.50
8226;DHT22;4154;48.810;9.012;2022-09-09T18:26:49;17.00;97.50
8226;DHT22;4154;48.810;9.012;2022-09-09T18:29:18;17.10;97.40
8226;DHT22;4154;48.810;9.012;2022-09-09T18:31:48;17.10;97.40
8226;DHT22;4154;48.810;9.012;2022-09-09T18:34:17;17.10;97.50
8226;DHT22;4154;48.810;9.012;2022-09-09T18:36:52;17.10;97.50
8226;DHT22;4154;48.810;9.012;2022-09-09T18:39:22;17.10;97.40
8226;DHT22;4154;48.810;9.012;2022-09-09T18:41:52;17.10;97.40
8226;DHT22;4154;48.810;9.012;2022-09-09T18:44:22;17.00;97.30
8226;DHT22;4154;48.810;9.012;2022-09-09T18:46:50;17.10;97.10
8226;DHT22;4154;48.810;9.012;2022-09-09T18:49:20;17.10;97.20
8226;DHT22;4154;48.810;9.012;2022-09-09T18:51:47;17.10;97.00
8226;DHT22;4154;48.810;9.012;2022-09-09T18:54:20;17.10;96.80
8226;DHT22;4154;48.810;9.012;2022-09-09T18:56:48;17.10;96.90
8226;DHT22;4154;48.810;9.012;2022-09-09T18:59:18;17.10;96.80
8226;DHT22;4154;48.810;9.012;2022-09-09T19:01:49;17.10;96.70
8226;DHT22;4154;48.810;9.012;2022-09-09T19:04:17;17.10;96.40
8226;DHT22;4154;48.810;9.012;2022-09-09T19:06:45;17.10;96.40
8226;DHT22;4154;48.810;9.012;2022-09-09T19:09:13;17.10;96.50
8226;DHT22;4154;48.810;9.012;2022-09-09T19:11:41;17.10;96.50
8226;DHT22;4154;48.810;9.012;2022-09-09T19:14:09;17.10;96.40
8226;DHT22;4154;48.810;9.012;2022-09-09T19:16:37;17.00;96.10
8226;DHT22;4154;48.810;9.012;2022-09-09T19:19:08;17.00;96.30
8226;DHT22;4154;48.810;9.012;2022-09-09T19:21:39;17.00;96.40
8226;DHT22;4154;48.810;9.012;2022-09-09T19:24:11;17.00;96.40
8226;DHT22;4154;48.810;9.012;2022-09-09T19:26:44;17.00;96.30
8226;DHT22;4154;48.810;9.012;2022-09-09T19:29:23;17.00;96.10
8226;DHT22;4154;48.810;9.012;2022-09-09T19:31:52;17.00;96.30
8226;DHT22;4154;48.810;9.012;2022-09-09T19:34:20;17.00;96.10
8226;DHT22;4154;48.810;9.012;2022-09-09T19:36:46;16.90;96.30
8226;DHT22;4154;48.810;9.012;2022-09-09T19:39:13;16.90;96.20
8226;DHT22;4154;48.810;9.012;2022-09-09T19:41:40;16.90;96.20
8226;DHT22;4154;48.810;9.012;2022-09-09T19:44:09;16.90;96.10